createdAt,value
2016-03-02T00:00:41.387Z,22.2
2016-03-02T00:01:39.921Z,22.2
2016-03-02T00:02:38.456Z,22.2
2016-03-02T00:03:37.096Z,22.2
2016-03-02T00:04:35.629Z,22.1
2016-03-02T00:05:34.039Z,22.1
2016-03-02T00:06:32.948Z,22.1
2016-03-02T00:07:31.670Z,22.1
2016-03-02T00:08:32.687Z,22.1
2016-03-02T00:09:31.831Z,22.1
2016-03-02T00:10:30.755Z,22.1
2016-03-02T00:11:29.789Z,22.1
2016-03-02T00:12:28.822Z,22.1
2016-03-02T00:13:27.873Z,22.1
2016-03-02T00:14:27.156Z,22.1
2016-03-02T00:15:26.456Z,22
2016-03-02T00:16:25.741Z,22
2016-03-02T00:17:25.352Z,22
2016-03-02T00:18:26.355Z,22
2016-03-02T00:19:26.014Z,21.9
2016-03-02T00:20:25.439Z,21.9
2016-03-02T00:21:25.097Z,21.9
2016-03-02T00:22:24.646Z,21.9
2016-03-02T00:23:24.447Z,21.9
2016-03-02T00:24:24.121Z,21.9
2016-03-02T00:25:24.030Z,21.9
2016-03-02T00:26:23.721Z,21.9
2016-03-02T00:27:23.566Z,21.9
2016-03-02T00:28:24.710Z,21.9
2016-03-02T00:29:24.368Z,21.8
2016-03-02T00:30:24.169Z,21.9
2016-03-02T00:31:24.093Z,21.8
2016-03-02T00:32:23.768Z,21.8
2016-03-02T00:33:23.582Z,21.8
2016-03-02T00:34:23.367Z,21.8
2016-03-02T00:35:23.167Z,21.8
2016-03-02T00:36:22.966Z,21.8
2016-03-02T00:37:22.938Z,21.8
2016-03-02T00:38:23.846Z,21.8
2016-03-02T00:39:23.614Z,21.8
2016-03-02T00:40:23.415Z,21.8
2016-03-02T00:41:23.339Z,21.8
2016-03-02T00:42:23.014Z,21.8
2016-03-02T00:43:22.813Z,21.8
2016-03-02T00:44:22.612Z,21.8
2016-03-02T00:45:22.396Z,21.8
2016-03-02T00:46:22.196Z,21.8
2016-03-02T00:47:22.058Z,21.8
2016-03-02T00:48:23.186Z,21.8
2016-03-02T00:49:22.860Z,21.7
2016-03-02T00:50:22.660Z,21.7
2016-03-02T00:51:22.569Z,21.7
2016-03-02T00:52:22.258Z,21.7
2016-03-02T00:53:22.058Z,21.7
2016-03-02T00:54:21.857Z,21.7
2016-03-02T00:55:21.642Z,21.7
2016-03-02T00:56:21.441Z,21.7
2016-03-02T00:57:21.304Z,21.7
2016-03-02T00:58:22.307Z,21.7
2016-03-02T00:59:22.106Z,21.7
2016-03-02T01:00:21.905Z,21.7
2016-03-02T01:01:21.705Z,21.7
2016-03-02T01:02:21.505Z,21.7
2016-03-02T01:03:21.304Z,21.7
2016-03-02T01:04:21.119Z,21.7
2016-03-02T01:05:21.169Z,21.7
2016-03-02T01:06:21.203Z,21.7
2016-03-02T01:07:21.315Z,21.7
2016-03-02T01:08:22.317Z,21.7
2016-03-02T01:09:22.383Z,21.7
2016-03-02T01:10:22.432Z,21.7
2016-03-02T01:11:22.481Z,21.7
2016-03-02T01:12:22.673Z,21.6
2016-03-02T01:13:22.597Z,21.6
2016-03-02T01:14:22.755Z,21.6
2016-03-02T01:15:22.695Z,21.6
2016-03-02T01:16:22.745Z,21.6
2016-03-02T01:17:22.858Z,21.6
2016-03-02T01:18:23.861Z,21.6
2016-03-02T01:19:23.910Z,21.6
2016-03-02T01:20:23.944Z,21.6
2016-03-02T01:21:24.258Z,21.6
2016-03-02T01:22:24.558Z,21.6
2016-03-02T01:23:24.983Z,21.6
2016-03-02T01:24:25.423Z,21.6
2016-03-02T01:25:25.988Z,21.5
2016-03-02T01:26:26.522Z,21.5
2016-03-02T01:27:27.259Z,21.5
2016-03-02T01:28:28.152Z,21.5
2016-03-02T01:29:28.702Z,21.5
2016-03-02T01:30:29.283Z,21.5
2016-03-02T01:31:29.832Z,21.5
2016-03-02T01:32:30.507Z,21.5
2016-03-02T01:33:30.948Z,21.5
2016-03-02T01:34:31.496Z,21.5
2016-03-02T01:35:31.812Z,21.5
2016-03-02T01:36:32.112Z,21.5
2016-03-02T01:37:32.599Z,21.5
2016-03-02T01:38:33.476Z,21.5
2016-03-02T01:39:33.792Z,21.5
2016-03-02T01:40:34.154Z,21.5
2016-03-02T01:41:34.390Z,21.5
2016-03-02T01:42:34.706Z,21.5
2016-03-02T01:43:35.006Z,21.5
2016-03-02T01:44:35.305Z,21.5
2016-03-02T01:45:35.730Z,21.5
2016-03-02T01:46:35.919Z,21.5
2016-03-02T01:47:36.282Z,21.5
2016-03-02T01:48:37.409Z,21.5
2016-03-02T01:49:37.584Z,21.5
2016-03-02T01:50:37.900Z,21.5
2016-03-02T01:51:38.324Z,21.5
2016-03-02T01:52:38.513Z,21.5
2016-03-02T01:53:38.939Z,21.5
2016-03-02T01:54:39.113Z,21.5
2016-03-02T01:55:39.413Z,21.5
2016-03-02T01:56:39.727Z,21.5
2016-03-02T01:57:40.090Z,21.5
2016-03-02T01:58:41.108Z,21.5
2016-03-02T01:59:41.392Z,21.5
2016-03-02T02:00:41.692Z,21.5
2016-03-02T02:01:42.007Z,21.5
2016-03-02T02:02:42.431Z,21.5
2016-03-02T02:03:42.621Z,21.5
2016-03-02T02:04:42.921Z,21.5
2016-03-02T02:05:43.226Z,21.5
2016-03-02T02:06:43.577Z,21.5
2016-03-02T02:07:43.642Z,21.5
2016-03-02T02:08:44.661Z,21.5
2016-03-02T02:09:45.088Z,21.5
2016-03-02T02:10:45.012Z,21.5
2016-03-02T02:11:45.311Z,21.5
2016-03-02T02:12:45.736Z,21.5
2016-03-02T02:13:45.911Z,21.4
2016-03-02T02:14:46.211Z,21.5
2016-03-02T02:15:46.525Z,21.4
2016-03-02T02:16:46.825Z,21.4
2016-03-02T02:17:47.188Z,21.4
2016-03-02T02:18:48.190Z,21.4
2016-03-02T02:19:48.505Z,21.4
2016-03-02T02:20:49.055Z,21.4
2016-03-02T02:21:49.621Z,21.4
2016-03-02T02:22:50.169Z,21.4
2016-03-02T02:23:50.735Z,21.4
2016-03-02T02:24:51.300Z,21.4
2016-03-02T02:25:51.849Z,21.4
2016-03-02T02:26:52.415Z,21.4
2016-03-02T02:27:53.137Z,21.4
2016-03-02T02:28:54.029Z,21.4
2016-03-02T02:29:54.720Z,21.4
2016-03-02T02:30:55.159Z,21.4
2016-03-02T02:31:55.710Z,21.4
2016-03-02T02:32:56.275Z,21.4
2016-03-02T02:33:56.824Z,21.4
2016-03-02T02:34:57.390Z,21.4
2016-03-02T02:35:58.079Z,21.4
2016-03-02T02:36:58.613Z,21.4
2016-03-02T02:37:59.117Z,21.4
2016-03-02T02:39:00.119Z,21.4
2016-03-02T02:40:00.684Z,21.4
2016-03-02T02:41:01.233Z,21.4
2016-03-02T02:42:01.799Z,21.4
2016-03-02T02:43:02.364Z,21.4
2016-03-02T02:44:02.913Z,21.4
2016-03-02T02:45:03.479Z,21.4
2016-03-02T02:46:04.028Z,21.4
2016-03-02T02:47:04.702Z,21.4
2016-03-02T02:48:05.221Z,21.4
2016-03-02T02:49:06.333Z,21.4
2016-03-02T02:50:06.883Z,21.4
2016-03-02T02:51:07.323Z,21.4
2016-03-02T02:52:07.888Z,21.4
2016-03-02T02:53:08.438Z,21.4
2016-03-02T02:54:09.002Z,21.4
2016-03-02T02:55:09.569Z,21.4
2016-03-02T02:56:10.227Z,21.4
2016-03-02T02:57:10.668Z,21.4
2016-03-02T02:58:11.279Z,21.4
2016-03-02T02:59:12.298Z,21.4
2016-03-02T03:00:12.598Z,21.4
2016-03-02T03:01:13.162Z,21.4
2016-03-02T03:02:13.462Z,21.4
2016-03-02T03:03:13.762Z,21.4
2016-03-02T03:04:14.186Z,21.4
2016-03-02T03:05:14.626Z,21.4
2016-03-02T03:06:15.207Z,21.4
2016-03-02T03:07:15.851Z,21.4
2016-03-02T03:08:16.353Z,21.4
2016-03-02T03:09:17.356Z,21.4
2016-03-02T03:10:17.921Z,21.3
2016-03-02T03:11:18.595Z,21.4
2016-03-02T03:12:19.160Z,21.4
2016-03-02T03:13:19.711Z,21.4
2016-03-02T03:14:20.275Z,21.4
2016-03-02T03:15:20.716Z,21.4
2016-03-02T03:16:21.641Z,21.4
2016-03-02T03:17:22.330Z,21.3
2016-03-02T03:18:23.208Z,21.4
2016-03-02T03:19:24.210Z,21.3
2016-03-02T03:20:25.042Z,21.3
2016-03-02T03:21:25.841Z,21.3
2016-03-02T03:22:26.765Z,21.3
2016-03-02T03:23:27.455Z,21.3
2016-03-02T03:24:28.521Z,21.3
2016-03-02T03:25:29.352Z,21.3
2016-03-02T03:26:30.511Z,21.3
2016-03-02T03:27:31.577Z,21.3
2016-03-02T03:28:32.579Z,21.3
2016-03-02T03:29:33.706Z,21.3
2016-03-02T03:30:34.647Z,21.4
2016-03-02T03:31:35.727Z,21.3
2016-03-02T03:32:36.777Z,21.3
2016-03-02T03:33:37.842Z,21.3
2016-03-02T03:34:38.657Z,21.3
2016-03-02T03:35:39.848Z,21.4
2016-03-02T03:36:40.537Z,21.3
2016-03-02T03:37:41.338Z,21.3
2016-03-02T03:38:42.325Z,21.4
2016-03-02T03:39:43.217Z,21.4
2016-03-02T03:40:44.142Z,21.4
2016-03-02T03:41:44.848Z,21.4
2016-03-02T03:42:45.772Z,21.3
2016-03-02T03:43:46.466Z,21.3
2016-03-02T03:44:47.140Z,21.4
2016-03-02T03:45:47.721Z,21.4
2016-03-02T03:46:48.130Z,21.4
2016-03-02T03:47:48.695Z,21.4
2016-03-02T03:48:49.307Z,21.4
2016-03-02T03:49:50.310Z,21.4
2016-03-02T03:50:50.984Z,21.4
2016-03-02T03:51:51.424Z,21.4
2016-03-02T03:52:51.990Z,21.4
2016-03-02T03:53:52.554Z,21.4
2016-03-02T03:54:53.105Z,21.4
2016-03-02T03:55:53.654Z,21.4
2016-03-02T03:56:54.344Z,21.4
2016-03-02T03:57:54.785Z,21.4
2016-03-02T03:58:55.396Z,21.4
2016-03-02T03:59:56.399Z,21.4
2016-03-02T04:00:56.965Z,21.3
2016-03-02T04:01:57.655Z,21.3
2016-03-02T04:02:58.204Z,21.3
2016-03-02T04:03:58.628Z,21.3
2016-03-02T04:04:59.194Z,21.3
2016-03-02T04:05:59.743Z,21.3
2016-03-02T04:07:00.449Z,21.3
2016-03-02T04:08:00.858Z,21.3
2016-03-02T04:09:01.611Z,21.3
2016-03-02T04:10:02.489Z,21.3
2016-03-02T04:11:03.054Z,21.3
2016-03-02T04:12:03.604Z,21.3
2016-03-02T04:13:04.278Z,21.3
2016-03-02T04:14:04.733Z,21.3
2016-03-02T04:15:05.283Z,21.3
2016-03-02T04:16:05.958Z,21.3
2016-03-02T04:17:06.413Z,21.3
2016-03-02T04:18:07.073Z,21.3
2016-03-02T04:19:07.591Z,21.3
2016-03-02T04:20:08.687Z,21.3
2016-03-02T04:21:09.502Z,21.3
2016-03-02T04:22:10.208Z,21.3
2016-03-02T04:23:11.149Z,21.3
2016-03-02T04:24:11.823Z,21.3
2016-03-02T04:25:12.638Z,21.3
2016-03-02T04:26:13.454Z,21.3
2016-03-02T04:27:14.268Z,21.3
2016-03-02T04:28:15.069Z,21.3
2016-03-02T04:29:15.930Z,21.3
2016-03-02T04:30:16.949Z,21.3
2016-03-02T04:31:17.748Z,21.3
2016-03-02T04:32:18.688Z,21.3
2016-03-02T04:33:19.504Z,21.3
2016-03-02T04:34:20.193Z,21.3
2016-03-02T04:35:21.009Z,21.3
2016-03-02T04:36:21.809Z,21.3
2016-03-02T04:37:22.623Z,21.3
2016-03-02T04:38:23.439Z,21.3
2016-03-02T04:39:24.301Z,21.3
2016-03-02T04:40:25.320Z,21.3
2016-03-02T04:41:26.244Z,21.3
2016-03-02T04:42:26.934Z,21.3
2016-03-02T04:43:27.859Z,21.3
2016-03-02T04:44:28.674Z,21.3
2016-03-02T04:45:29.489Z,21.3
2016-03-02T04:46:30.179Z,21.3
2016-03-02T04:47:30.994Z,21.3
2016-03-02T04:48:31.919Z,21.3
2016-03-02T04:49:32.781Z,21.3
2016-03-02T04:50:33.674Z,21.3
2016-03-02T04:51:34.489Z,21.3
2016-03-02T04:52:35.038Z,21.3
2016-03-02T04:53:35.980Z,21.3
2016-03-02T04:54:36.419Z,21.3
2016-03-02T04:55:37.093Z,21.3
2016-03-02T04:56:37.644Z,21.3
2016-03-02T04:57:38.083Z,21.3
2016-03-02T04:58:38.665Z,21.3
2016-03-02T04:59:39.261Z,21.3
2016-03-02T05:00:40.263Z,21.3
2016-03-02T05:01:40.829Z,21.3
2016-03-02T05:02:41.378Z,21.3
2016-03-02T05:03:42.069Z,21.3
2016-03-02T05:04:42.509Z,21.3
2016-03-02T05:05:43.184Z,21.3
2016-03-02T05:06:43.732Z,21.3
2016-03-02T05:07:44.173Z,21.3
2016-03-02T05:08:44.879Z,21.3
2016-03-02T05:09:45.350Z,21.3
2016-03-02T05:10:46.479Z,21.3
2016-03-02T05:11:46.918Z,21.3
2016-03-02T05:12:47.471Z,21.3
2016-03-02T05:13:48.036Z,21.2
2016-03-02T05:14:48.711Z,21.3
2016-03-02T05:15:49.275Z,21.3
2016-03-02T05:16:49.700Z,21.3
2016-03-02T05:17:50.389Z,21.2
2016-03-02T05:18:51.080Z,21.3
2016-03-02T05:19:52.067Z,21.2
2016-03-02T05:20:52.961Z,21.3
2016-03-02T05:21:53.760Z,21.2
2016-03-02T05:22:54.575Z,21.2
2016-03-02T05:23:55.391Z,21.2
2016-03-02T05:24:56.206Z,21.2
2016-03-02T05:25:57.271Z,21.2
2016-03-02T05:26:58.321Z,21.2
2016-03-02T05:27:59.402Z,21.2
2016-03-02T05:29:00.576Z,21.2
2016-03-02T05:30:01.579Z,21.2
2016-03-02T05:31:02.597Z,21.2
2016-03-02T05:32:03.771Z,21.2
2016-03-02T05:33:04.712Z,21.2
2016-03-02T05:34:05.777Z,21.2
2016-03-02T05:35:06.858Z,21.2
2016-03-02T05:36:08.048Z,21.2
2016-03-02T05:37:09.112Z,21.3
2016-03-02T05:38:09.788Z,21.2
2016-03-02T05:39:10.603Z,21.3
2016-03-02T05:40:11.465Z,21.3
2016-03-02T05:41:12.484Z,21.3
2016-03-02T05:42:13.298Z,21.3
2016-03-02T05:43:14.098Z,21.3
2016-03-02T05:44:14.914Z,21.3
2016-03-02T05:45:15.712Z,21.3
2016-03-02T05:46:16.528Z,21.3
2016-03-02T05:47:17.342Z,21.3
2016-03-02T05:48:18.158Z,21.3
2016-03-02T05:49:18.833Z,21.3
2016-03-02T05:50:19.319Z,21.3
2016-03-02T05:51:20.464Z,21.3
2016-03-02T05:52:20.888Z,21.3
2016-03-02T05:53:21.453Z,21.3
2016-03-02T05:54:22.003Z,21.3
2016-03-02T05:55:22.568Z,21.3
2016-03-02T05:56:23.117Z,21.3
2016-03-02T05:57:23.682Z,21.2
2016-03-02T05:58:24.263Z,21.3
2016-03-02T05:59:24.797Z,21.2
2016-03-02T06:00:25.534Z,21.2
2016-03-02T06:01:26.428Z,21.2
2016-03-02T06:02:26.993Z,21.3
2016-03-02T06:03:27.667Z,21.2
2016-03-02T06:04:28.092Z,21.3
2016-03-02T06:05:28.688Z,21.2
2016-03-02T06:06:29.207Z,21.2
2016-03-02T06:07:29.896Z,21.2
2016-03-02T06:08:30.337Z,21.3
2016-03-02T06:09:30.887Z,21.2
2016-03-02T06:10:31.623Z,21.3
2016-03-02T06:11:32.627Z,21.2
2016-03-02T06:12:33.192Z,21.2
2016-03-02T06:13:33.632Z,21.2
2016-03-02T06:14:34.181Z,21.3
2016-03-02T06:15:34.872Z,21.2
2016-03-02T06:16:35.296Z,21.2
2016-03-02T06:17:35.861Z,21.2
2016-03-02T06:18:36.411Z,21.2
2016-03-02T06:19:37.226Z,21.2
2016-03-02T06:20:38.088Z,21.2
2016-03-02T06:21:39.106Z,21.2
2016-03-02T06:22:40.172Z,21.2
2016-03-02T06:23:41.236Z,21.2
2016-03-02T06:24:42.302Z,21.2
2016-03-02T06:25:43.367Z,21.2
2016-03-02T06:26:44.432Z,21.2
2016-03-02T06:27:45.607Z,21.2
2016-03-02T06:28:46.562Z,21.2
2016-03-02T06:29:47.628Z,21.2
2016-03-02T06:30:48.868Z,21.2
2016-03-02T06:31:49.761Z,21.2
2016-03-02T06:32:50.810Z,21.2
2016-03-02T06:33:51.626Z,21.2
2016-03-02T06:34:52.691Z,21.2
2016-03-02T06:35:53.756Z,21.2
2016-03-02T06:36:54.696Z,21.2
2016-03-02T06:37:55.387Z,21.2
2016-03-02T06:38:56.202Z,21.2
2016-03-02T06:39:57.001Z,21.2
2016-03-02T06:40:57.863Z,21.3
2016-03-02T06:41:58.881Z,21.2
2016-03-02T06:42:59.682Z,21.3
2016-03-02T06:44:00.496Z,21.3
2016-03-02T06:45:01.311Z,21.2
2016-03-02T06:46:02.236Z,21.2
2016-03-02T06:47:02.942Z,21.2
2016-03-02T06:48:03.867Z,21.3
2016-03-02T06:49:04.557Z,21.3
2016-03-02T06:50:05.372Z,21.2
2016-03-02T06:52:07.267Z,21.2
2016-03-02T06:53:08.177Z,21.3
2016-03-02T06:54:08.617Z,21.2
2016-03-02T06:55:09.542Z,21.3
2016-03-02T06:56:10.232Z,21.3
2016-03-02T06:57:10.906Z,21.2
2016-03-02T06:58:11.612Z,21.3
2016-03-02T06:59:12.287Z,21.3
2016-03-02T07:00:12.727Z,21.3
2016-03-02T07:01:13.339Z,21.2
2016-03-02T07:02:14.341Z,21.2
2016-03-02T07:03:14.908Z,21.3
2016-03-02T07:04:15.519Z,21.3
2016-03-02T07:05:16.021Z,21.2
2016-03-02T07:06:16.696Z,21.3
2016-03-02T07:07:17.137Z,21.2
2016-03-02T07:08:17.811Z,21.3
2016-03-02T07:09:18.377Z,21.2
2016-03-02T07:10:18.926Z,21.2
2016-03-02T07:11:19.554Z,21.2
2016-03-02T07:12:20.556Z,21.2
2016-03-02T07:13:20.997Z,21.2
2016-03-02T07:14:21.546Z,21.2
2016-03-02T07:15:22.236Z,21.2
2016-03-02T07:16:22.677Z,21.2
2016-03-02T07:17:23.226Z,21.2
2016-03-02T07:18:23.792Z,21.2
2016-03-02T07:19:24.340Z,21.2
2016-03-02T07:20:25.172Z,21.2
2016-03-02T07:21:26.018Z,21.2
2016-03-02T07:22:27.036Z,21.2
2016-03-02T07:23:27.961Z,21.2
2016-03-02T07:24:28.651Z,21.2
2016-03-02T07:25:29.576Z,21.2
2016-03-02T07:26:30.266Z,21.2
2016-03-02T07:27:31.207Z,21.2
2016-03-02T07:28:31.897Z,21.2
2016-03-02T07:29:32.712Z,21.2
2016-03-02T07:30:33.637Z,21.2
2016-03-02T07:31:34.373Z,21.2
2016-03-02T07:32:35.392Z,21.2
2016-03-02T07:33:36.191Z,21.2
2016-03-02T07:34:37.023Z,21.2
2016-03-02T07:35:37.823Z,21.2
2016-03-02T07:36:38.762Z,21.2
2016-03-02T07:37:39.562Z,21.2
2016-03-02T07:38:40.252Z,21.2
2016-03-02T07:39:41.317Z,21.2
2016-03-02T07:40:42.132Z,21.2
2016-03-02T07:41:42.994Z,21.2
2016-03-02T07:42:44.013Z,21.2
2016-03-02T07:43:44.937Z,21.2
2016-03-02T07:44:46.019Z,21.2
2016-03-02T07:45:46.693Z,21.2
2016-03-02T07:46:47.508Z,21.2
2016-03-02T07:47:48.573Z,21.2
2016-03-02T07:48:49.388Z,21.2
2016-03-02T07:49:50.454Z,21.2
2016-03-02T07:50:51.269Z,21.2
2016-03-02T07:51:52.240Z,21.2
2016-03-02T07:52:53.148Z,21.2
2016-03-02T07:53:54.073Z,21.2
2016-03-02T07:54:55.014Z,21.2
2016-03-02T07:55:55.844Z,21.2
2016-03-02T07:56:56.628Z,21.2
2016-03-02T07:57:57.459Z,21.2
2016-03-02T07:58:58.259Z,21.2
2016-03-02T07:59:59.073Z,21.2
2016-03-02T08:00:59.889Z,21.2
2016-03-02T08:02:00.751Z,21.2
2016-03-02T08:03:01.785Z,21.2
2016-03-02T08:04:02.694Z,21.2
2016-03-02T08:05:03.384Z,21.2
2016-03-02T08:06:04.309Z,21.2
2016-03-02T08:07:05.000Z,21.2
2016-03-02T08:08:05.814Z,21.2
2016-03-02T08:09:06.614Z,21.2
2016-03-02T08:10:07.430Z,21.2
2016-03-02T08:11:08.244Z,21.2
2016-03-02T08:12:09.106Z,21.2
2016-03-02T08:13:10.125Z,21.2
2016-03-02T08:14:10.941Z,21.2
2016-03-02T08:15:12.114Z,21.2
2016-03-02T08:16:13.179Z,21.2
2016-03-02T08:17:14.135Z,21.2
2016-03-02T08:18:15.216Z,21.1
2016-03-02T08:19:16.391Z,21.2
2016-03-02T08:20:17.335Z,21.1
2016-03-02T08:21:18.399Z,21.2
2016-03-02T08:22:19.543Z,21.2
2016-03-02T08:23:20.529Z,21.2
2016-03-02T08:24:21.579Z,21.2
2016-03-02T08:25:22.643Z,21.2
2016-03-02T08:26:23.709Z,21.2
2016-03-02T08:27:24.790Z,21.2
2016-03-02T08:28:25.965Z,21.2
2016-03-02T08:29:26.937Z,21.2
2016-03-02T08:30:27.986Z,21.1
2016-03-02T08:31:29.035Z,21.1
2016-03-02T08:32:30.163Z,21.1
2016-03-02T08:33:31.181Z,21.1
2016-03-02T08:34:32.356Z,21.2
2016-03-02T08:35:33.311Z,21.2
2016-03-02T08:36:34.377Z,21.2
2016-03-02T08:37:35.416Z,21.1
2016-03-02T08:38:36.593Z,21.2
2016-03-02T08:39:37.517Z,21.2
2016-03-02T08:40:38.567Z,21.2
2016-03-02T08:41:39.617Z,21.2
2016-03-02T08:42:40.719Z,21.2
2016-03-02T08:43:41.856Z,21.2
2016-03-02T08:44:42.807Z,21.2
2016-03-02T08:45:43.866Z,21.2
2016-03-02T08:46:44.926Z,21.2
2016-03-02T08:47:46.191Z,21.3
2016-03-02T08:48:47.052Z,21.2
2016-03-02T08:49:48.114Z,21.2
2016-03-02T08:50:49.179Z,21.3
2016-03-02T08:51:50.351Z,21.2
2016-03-02T08:52:51.352Z,21.2
2016-03-02T08:53:52.479Z,21.2
2016-03-02T08:54:53.434Z,21.2
2016-03-02T08:55:54.608Z,21.2
2016-03-02T08:56:55.719Z,21.2
2016-03-02T08:57:56.612Z,21.2
2016-03-02T08:58:57.678Z,21.2
2016-03-02T08:59:58.743Z,21.2
2016-03-02T09:00:59.932Z,21.2
2016-03-02T09:02:00.873Z,21.2
2016-03-02T09:03:02.001Z,21.2
2016-03-02T09:04:03.003Z,21.2
2016-03-02T09:05:04.131Z,21.2
2016-03-02T09:06:05.243Z,21.2
2016-03-02T09:07:06.308Z,21.2
2016-03-02T09:08:07.249Z,21.2
2016-03-02T09:09:08.438Z,21.2
2016-03-02T09:10:09.504Z,21.2
2016-03-02T09:11:10.443Z,21.2
2016-03-02T09:12:11.509Z,21.2
2016-03-02T09:13:12.668Z,21.2
2016-03-02T09:14:13.748Z,21.2
2016-03-02T09:15:14.720Z,21.2
2016-03-02T09:16:16.020Z,21.2
2016-03-02T09:17:17.334Z,21.2
2016-03-02T09:18:18.667Z,21.2
2016-03-02T09:19:20.356Z,21.2
2016-03-02T09:20:21.922Z,21.2
2016-03-02T09:21:23.380Z,21.2
2016-03-02T09:22:24.945Z,21.2
2016-03-02T09:23:26.572Z,21.2
2016-03-02T09:24:27.716Z,21.1
2016-03-02T09:25:28.891Z,21.1
2016-03-02T09:26:30.331Z,21.1
2016-03-02T09:27:31.333Z,21
2016-03-02T09:28:32.352Z,21
2016-03-02T09:29:33.167Z,20.9
2016-03-02T09:30:33.717Z,20.9
2016-03-02T09:31:34.407Z,20.8
2016-03-02T09:32:34.847Z,20.8
2016-03-02T09:33:35.443Z,20.7
2016-03-02T09:34:36.446Z,20.7
2016-03-02T09:35:37.027Z,20.7
2016-03-02T09:36:37.560Z,20.6
2016-03-02T09:37:38.127Z,20.6
2016-03-02T09:38:38.676Z,20.6
2016-03-02T09:39:39.616Z,20.6
2016-03-02T09:40:40.307Z,20.6
2016-03-02T09:41:41.121Z,20.5
2016-03-02T09:42:42.202Z,20.5
2016-03-02T09:43:43.298Z,20.6
2016-03-02T09:44:44.317Z,20.6
2016-03-02T09:45:45.506Z,20.6
2016-03-02T09:46:46.697Z,20.6
2016-03-02T09:47:48.137Z,20.7
2016-03-02T09:48:49.342Z,20.6
2016-03-02T09:49:50.658Z,20.7
2016-03-02T09:50:52.239Z,20.7
2016-03-02T09:51:53.820Z,20.8
2016-03-02T09:52:55.417Z,20.8
2016-03-02T09:53:57.013Z,20.9
2016-03-02T09:54:58.016Z,20.9
2016-03-02T09:55:55.877Z,20.9
2016-03-02T09:56:53.567Z,20.9
2016-03-02T09:57:51.632Z,20.9
2016-03-02T09:58:49.604Z,21
2016-03-02T09:59:47.638Z,21
2016-03-02T10:00:45.657Z,21
2016-03-02T10:01:43.721Z,21
2016-03-02T10:02:41.725Z,21.1
2016-03-02T10:03:39.899Z,21.1
2016-03-02T10:04:40.793Z,21.1
2016-03-02T10:05:38.826Z,21.1
2016-03-02T10:06:36.954Z,21.2
2016-03-02T10:07:34.863Z,21.2
2016-03-02T10:08:32.881Z,21.2
2016-03-02T10:09:30.916Z,21.2
2016-03-02T10:10:28.934Z,21.2
2016-03-02T10:11:26.968Z,21.2
2016-03-02T10:12:24.985Z,21.2
2016-03-02T10:13:26.363Z,21.1
2016-03-02T10:14:27.365Z,21.1
2016-03-02T10:15:27.681Z,21.1
2016-03-02T10:16:26.200Z,21.1
2016-03-02T10:17:27.530Z,21.1
2016-03-02T10:18:27.830Z,21.1
2016-03-02T10:19:27.411Z,21.1
2016-03-02T10:20:26.414Z,21.2
2016-03-02T10:21:24.932Z,21.2
2016-03-02T10:22:23.229Z,21.2
2016-03-02T10:23:21.309Z,21.2
2016-03-02T10:24:22.312Z,21.3
2016-03-02T10:25:24.003Z,21.3
2016-03-02T10:26:25.208Z,21.3
2016-03-02T10:27:26.260Z,21.3
2016-03-02T10:28:27.357Z,21.3
2016-03-02T10:29:28.281Z,21.3
2016-03-02T10:30:28.972Z,21.3
2016-03-02T10:31:29.897Z,21.4
2016-03-02T10:32:30.446Z,21.4
2016-03-02T10:33:30.933Z,21.5
2016-03-02T10:34:31.935Z,21.5
2016-03-02T10:35:32.626Z,21.5
2016-03-02T10:36:32.924Z,21.5
2016-03-02T10:37:33.116Z,21.5
2016-03-02T10:38:33.430Z,21.6
2016-03-02T10:39:33.746Z,21.6
2016-03-02T10:40:33.780Z,21.7
2016-03-02T10:41:33.830Z,21.7
2016-03-02T10:42:33.629Z,21.7
2016-03-02T10:43:33.476Z,21.7
2016-03-02T10:44:34.509Z,21.7
2016-03-02T10:45:34.059Z,21.7
2016-03-02T10:46:33.702Z,21.7
2016-03-02T10:47:32.892Z,21.7
2016-03-02T10:48:32.192Z,21.7
2016-03-02T10:49:31.492Z,21.7
2016-03-02T10:50:30.775Z,21.7
2016-03-02T10:51:30.059Z,21.7
2016-03-02T10:52:29.359Z,21.6
2016-03-02T10:53:28.705Z,21.6
2016-03-02T10:54:29.723Z,21.7
2016-03-02T10:55:28.758Z,21.6
2016-03-02T10:56:27.792Z,21.6
2016-03-02T10:57:26.933Z,21.5
2016-03-02T10:58:25.857Z,21.5
2016-03-02T10:59:24.906Z,21.5
2016-03-02T11:00:23.675Z,21.5
2016-03-02T11:01:22.724Z,21.6
2016-03-02T11:02:21.492Z,21.5
2016-03-02T11:03:20.339Z,21.6
2016-03-02T11:04:21.357Z,21.6
2016-03-02T11:05:20.251Z,21.5
2016-03-02T11:06:18.925Z,21.6
2016-03-02T11:07:17.693Z,21.7
2016-03-02T11:08:16.509Z,21.6
2016-03-02T11:09:15.418Z,21.6
2016-03-02T11:10:13.810Z,21.7
2016-03-02T11:11:12.329Z,21.7
2016-03-02T11:12:10.863Z,21.7
2016-03-02T11:13:09.444Z,21.7
2016-03-02T11:14:10.462Z,21.7
2016-03-02T11:15:08.731Z,21.7
2016-03-02T11:16:07.015Z,21.7
2016-03-02T11:17:05.282Z,21.7
2016-03-02T11:18:03.567Z,21.7
2016-03-02T11:19:01.960Z,21.7
2016-03-02T11:20:00.120Z,21.7
2016-03-02T11:20:58.403Z,21.7
2016-03-02T11:21:56.671Z,21.8
2016-03-02T11:22:54.877Z,21.8
2016-03-02T11:23:55.755Z,21.8
2016-03-02T11:24:53.804Z,21.8
2016-03-02T11:25:51.807Z,21.7
2016-03-02T11:26:49.842Z,21.8
2016-03-02T11:27:47.859Z,21.8
2016-03-02T11:28:45.878Z,21.8
2016-03-02T11:29:43.646Z,21.8
2016-03-02T11:30:41.414Z,21.9
2016-03-02T11:31:39.308Z,21.8
2016-03-02T11:32:37.014Z,21.8
2016-03-02T11:33:38.032Z,21.9
2016-03-02T11:34:35.910Z,21.8
2016-03-02T11:35:33.569Z,21.8
2016-03-02T11:36:31.336Z,21.9
2016-03-02T11:37:29.102Z,21.9
2016-03-02T11:38:26.886Z,21.9
2016-03-02T11:39:24.639Z,21.9
2016-03-02T11:40:26.220Z,21.9
2016-03-02T11:41:27.785Z,21.9
2016-03-02T11:42:29.412Z,21.9
2016-03-02T11:43:30.434Z,21.9
2016-03-02T11:44:31.999Z,21.9
2016-03-02T11:45:33.565Z,21.9
2016-03-02T11:46:35.129Z,21.9
2016-03-02T11:47:36.460Z,22
2016-03-02T11:48:37.775Z,21.9
2016-03-02T11:49:39.090Z,21.9
2016-03-02T11:50:40.406Z,21.9
2016-03-02T11:51:41.736Z,22
2016-03-02T11:52:43.099Z,21.9
2016-03-02T11:53:44.101Z,21.9
2016-03-02T11:54:45.432Z,21.9
2016-03-02T11:55:46.747Z,22
2016-03-02T11:56:48.062Z,22
2016-03-02T11:57:49.393Z,21.9
2016-03-02T11:58:50.458Z,21.9
2016-03-02T11:59:51.523Z,21.9
2016-03-02T12:00:52.589Z,21.9
2016-03-02T12:01:53.653Z,21.9
2016-03-02T12:02:54.767Z,21.9
2016-03-02T12:03:55.769Z,21.9
2016-03-02T12:04:56.833Z,21.9
2016-03-02T12:05:57.911Z,21.9
2016-03-02T12:06:58.976Z,21.9
2016-03-02T12:08:00.151Z,21.9
2016-03-02T12:09:01.091Z,21.9
2016-03-02T12:10:01.906Z,21.9
2016-03-02T12:11:02.721Z,21.9
2016-03-02T12:12:03.646Z,21.9
2016-03-02T12:13:04.414Z,21.9
2016-03-02T12:14:05.417Z,21.9
2016-03-02T12:15:06.216Z,21.9
2016-03-02T12:16:07.048Z,21.9
2016-03-02T12:17:07.847Z,21.9
2016-03-02T12:18:08.662Z,21.9
2016-03-02T12:19:09.461Z,21.9
2016-03-02T12:20:10.277Z,21.9
2016-03-02T12:21:11.092Z,21.9
2016-03-02T12:22:11.908Z,21.9
2016-03-02T12:23:12.769Z,21.9
2016-03-02T12:24:13.788Z,21.9
2016-03-02T12:25:14.603Z,21.9
2016-03-02T12:26:15.402Z,21.9
2016-03-02T12:27:16.218Z,21.9
2016-03-02T12:28:17.157Z,21.9
2016-03-02T12:29:17.848Z,21.9
2016-03-02T12:30:18.647Z,21.9
2016-03-02T12:31:19.462Z,21.9
2016-03-02T12:32:20.277Z,21.9
2016-03-02T12:33:21.265Z,21.9
2016-03-02T12:34:22.268Z,21.9
2016-03-02T12:35:22.973Z,21.9
2016-03-02T12:36:23.649Z,21.9
2016-03-02T12:37:24.087Z,21.9
2016-03-02T12:38:24.638Z,21.9
2016-03-02T12:39:25.204Z,21.9
2016-03-02T12:40:25.753Z,21.9
2016-03-02T12:41:26.333Z,21.9
2016-03-02T12:42:26.867Z,21.9
2016-03-02T12:43:27.495Z,21.9
2016-03-02T12:44:28.623Z,21.9
2016-03-02T12:45:29.062Z,21.9
2016-03-02T12:46:29.612Z,21.9
2016-03-02T12:47:29.912Z,21.9
2016-03-02T12:48:30.228Z,21.9
2016-03-02T12:49:30.527Z,21.9
2016-03-02T12:50:30.826Z,21.9
2016-03-02T12:51:31.142Z,21.9
2016-03-02T12:52:31.551Z,21.9
2016-03-02T12:53:31.803Z,21.9
2016-03-02T12:54:32.805Z,21.9
2016-03-02T12:55:33.121Z,21.9
2016-03-02T12:56:33.422Z,21.9
2016-03-02T12:57:33.736Z,21.9
2016-03-02T12:58:34.145Z,21.9
2016-03-02T12:59:34.335Z,21.9
2016-03-02T13:00:34.635Z,21.9
2016-03-02T13:01:34.950Z,21.9
2016-03-02T13:02:35.358Z,21.9
2016-03-02T13:03:35.611Z,21.9
2016-03-02T13:04:36.614Z,21.9
2016-03-02T13:05:36.930Z,21.9
2016-03-02T13:06:37.230Z,21.9
2016-03-02T13:07:37.529Z,21.9
2016-03-02T13:08:37.844Z,21.9
2016-03-02T13:09:38.144Z,21.9
2016-03-02T13:10:38.443Z,21.9
2016-03-02T13:11:38.743Z,21.9
2016-03-02T13:12:39.168Z,21.9
2016-03-02T13:13:39.420Z,21.9
2016-03-02T13:14:40.423Z,21.9
2016-03-02T13:15:40.473Z,21.9
2016-03-02T13:16:40.521Z,21.9
2016-03-02T13:17:40.837Z,21.9
2016-03-02T13:18:40.887Z,21.9
2016-03-02T13:19:40.936Z,21.9
2016-03-02T13:20:40.986Z,21.9
2016-03-02T13:21:41.145Z,21.9
2016-03-02T13:22:41.085Z,21.9
2016-03-02T13:23:41.197Z,21.9
2016-03-02T13:24:42.215Z,21.9
2016-03-02T13:25:42.250Z,21.9
2016-03-02T13:26:42.314Z,21.9